sensor_id;sensor_type;location;lat;lon;timestamp;P1;durP1;ratioP1;P2;durP2;ratioP2
16685;SDS011;8456;51.136;4.210;2022-07-06T00:01:34;9.63;;;5.70;;
16685;SDS011;8456;51.136;4.210;2022-07-06T00:04:03;11.13;;;5.90;;
16685;SDS011;8456;51.136;4.210;2022-07-06T00:06:30;8.57;;;5.57;;
16685;SDS011;8456;51.136;4.210;2022-07-06T00:08:56;11.50;;;6.50;;
16685;SDS011;8456;51.136;4.210;2022-07-06T00:11:22;11.47;;;6.60;;
16685;SDS011;8456;51.136;4.210;2022-07-06T00:13:48;11.40;;;6.63;;
16685;SDS011;8456;51.136;4.210;2022-07-06T00:16:14;11.40;;;6.87;;
16685;SDS011;8456;51.136;4.210;2022-07-06T00:18:40;8.77;;;6.83;;
16685;SDS011;8456;51.136;4.210;2022-07-06T00:21:06;9.20;;;6.80;;
16685;SDS011;8456;51.136;4.210;2022-07-06T00:23:32;11.80;;;7.53;;
16685;SDS011;8456;51.136;4.210;2022-07-06T00:25:57;10.77;;;8.07;;
16685;SDS011;8456;51.136;4.210;2022-07-06T00:28:23;9.97;;;7.37;;
16685;SDS011;8456;51.136;4.210;2022-07-06T00:30:49;10.27;;;7.40;;
16685;SDS011;8456;51.136;4.210;2022-07-06T00:33:15;14.03;;;8.10;;
16685;SDS011;8456;51.136;4.210;2022-07-06T00:35:41;9.27;;;7.23;;
16685;SDS011;8456;51.136;4.210;2022-07-06T00:38:07;10.57;;;7.63;;
16685;SDS011;8456;51.136;4.210;2022-07-06T00:40:33;10.80;;;8.00;;
16685;SDS011;8456;51.136;4.210;2022-07-06T00:42:58;8.00;;;6.90;;
16685;SDS011;8456;51.136;4.210;2022-07-06T00:45:24;11.10;;;6.97;;
16685;SDS011;8456;51.136;4.210;2022-07-06T00:47:50;9.03;;;7.67;;
16685;SDS011;8456;51.136;4.210;2022-07-06T00:50:17;10.60;;;7.73;;
16685;SDS011;8456;51.136;4.210;2022-07-06T00:52:50;12.90;;;7.83;;
16685;SDS011;8456;51.136;4.210;2022-07-06T00:55:17;11.77;;;8.87;;
16685;SDS011;8456;51.136;4.210;2022-07-06T00:57:44;11.40;;;7.97;;
16685;SDS011;8456;51.136;4.210;2022-07-06T01:00:12;9.30;;;7.27;;
16685;SDS011;8456;51.136;4.210;2022-07-06T01:02:40;9.87;;;7.40;;
16685;SDS011;8456;51.136;4.210;2022-07-06T01:05:06;9.50;;;7.63;;
16685;SDS011;8456;51.136;4.210;2022-07-06T01:07:34;8.33;;;7.53;;
16685;SDS011;8456;51.136;4.210;2022-07-06T01:10:02;10.17;;;7.23;;
16685;SDS011;8456;51.136;4.210;2022-07-06T01:12:31;9.47;;;7.70;;
16685;SDS011;8456;51.136;4.210;2022-07-06T01:15:01;10.50;;;8.33;;
16685;SDS011;8456;51.136;4.210;2022-07-06T01:17:28;7.63;;;6.83;;
16685;SDS011;8456;51.136;4.210;2022-07-06T01:19:55;11.40;;;7.80;;
16685;SDS011;8456;51.136;4.210;2022-07-06T01:22:21;9.00;;;8.10;;
16685;SDS011;8456;51.136;4.210;2022-07-06T01:24:47;11.37;;;8.97;;
16685;SDS011;8456;51.136;4.210;2022-07-06T01:27:13;11.53;;;8.03;;
16685;SDS011;8456;51.136;4.210;2022-07-06T01:29:38;12.77;;;8.27;;
16685;SDS011;8456;51.136;4.210;2022-07-06T01:32:04;9.60;;;7.63;;
16685;SDS011;8456;51.136;4.210;2022-07-06T01:34:30;9.53;;;8.20;;
16685;SDS011;8456;51.136;4.210;2022-07-06T01:36:56;10.67;;;8.20;;
16685;SDS011;8456;51.136;4.210;2022-07-06T01:39:22;11.53;;;9.00;;
16685;SDS011;8456;51.136;4.210;2022-07-06T01:41:49;13.90;;;8.93;;
16685;SDS011;8456;51.136;4.210;2022-07-06T01:44:15;14.67;;;9.53;;
16685;SDS011;8456;51.136;4.210;2022-07-06T01:46:41;17.37;;;9.20;;
16685;SDS011;8456;51.136;4.210;2022-07-06T01:49:08;9.27;;;7.77;;
16685;SDS011;8456;51.136;4.210;2022-07-06T01:51:34;11.13;;;9.00;;
16685;SDS011;8456;51.136;4.210;2022-07-06T01:54:00;12.10;;;8.50;;
16685;SDS011;8456;51.136;4.210;2022-07-06T01:56:27;11.17;;;8.07;;
16685;SDS011;8456;51.136;4.210;2022-07-06T01:58:57;10.47;;;8.00;;
16685;SDS011;8456;51.136;4.210;2022-07-06T02:01:23;10.70;;;7.97;;
16685;SDS011;8456;51.136;4.210;2022-07-06T02:03:49;9.27;;;8.37;;
16685;SDS011;8456;51.136;4.210;2022-07-06T02:06:15;8.67;;;7.77;;
16685;SDS011;8456;51.136;4.210;2022-07-06T02:08:42;11.33;;;8.23;;
16685;SDS011;8456;51.136;4.210;2022-07-06T02:11:08;11.60;;;8.33;;
16685;SDS011;8456;51.136;4.210;2022-07-06T02:13:37;9.57;;;8.57;;
16685;SDS011;8456;51.136;4.210;2022-07-06T02:16:05;10.07;;;7.63;;
16685;SDS011;8456;51.136;4.210;2022-07-06T02:18:31;9.20;;;8.23;;
16685;SDS011;8456;51.136;4.210;2022-07-06T02:20:57;10.87;;;7.57;;
16685;SDS011;8456;51.136;4.210;2022-07-06T02:23:23;9.80;;;8.33;;
16685;SDS011;8456;51.136;4.210;2022-07-06T02:25:50;9.40;;;7.80;;
16685;SDS011;8456;51.136;4.210;2022-07-06T02:28:16;12.90;;;8.60;;
16685;SDS011;8456;51.136;4.210;2022-07-06T02:30:42;8.43;;;7.63;;
16685;SDS011;8456;51.136;4.210;2022-07-06T02:33:09;10.13;;;8.70;;
16685;SDS011;8456;51.136;4.210;2022-07-06T02:35:36;8.70;;;7.90;;
16685;SDS011;8456;51.136;4.210;2022-07-06T02:38:07;10.03;;;8.40;;
16685;SDS011;8456;51.136;4.210;2022-07-06T02:40:36;8.87;;;7.33;;
16685;SDS011;8456;51.136;4.210;2022-07-06T02:43:03;11.07;;;8.13;;
16685;SDS011;8456;51.136;4.210;2022-07-06T02:45:30;8.90;;;7.03;;
16685;SDS011;8456;51.136;4.210;2022-07-06T02:47:56;9.17;;;7.50;;
16685;SDS011;8456;51.136;4.210;2022-07-06T02:50:23;8.43;;;7.53;;
16685;SDS011;8456;51.136;4.210;2022-07-06T02:52:50;7.97;;;7.20;;
16685;SDS011;8456;51.136;4.210;2022-07-06T02:55:16;9.40;;;7.50;;
16685;SDS011;8456;51.136;4.210;2022-07-06T02:57:43;9.80;;;7.93;;
16685;SDS011;8456;51.136;4.210;2022-07-06T03:00:11;10.90;;;8.07;;
16685;SDS011;8456;51.136;4.210;2022-07-06T03:02:38;9.53;;;7.47;;
16685;SDS011;8456;51.136;4.210;2022-07-06T03:05:04;9.27;;;8.27;;
16685;SDS011;8456;51.136;4.210;2022-07-06T03:07:30;8.87;;;8.07;;
16685;SDS011;8456;51.136;4.210;2022-07-06T03:09:57;11.20;;;7.70;;
16685;SDS011;8456;51.136;4.210;2022-07-06T03:12:22;11.47;;;8.30;;
16685;SDS011;8456;51.136;4.210;2022-07-06T03:14:48;12.67;;;8.57;;
16685;SDS011;8456;51.136;4.210;2022-07-06T03:17:15;11.07;;;7.93;;
16685;SDS011;8456;51.136;4.210;2022-07-06T03:19:41;12.13;;;8.87;;
16685;SDS011;8456;51.136;4.210;2022-07-06T03:22:07;13.20;;;9.20;;
16685;SDS011;8456;51.136;4.210;2022-07-06T03:24:33;11.30;;;9.47;;
16685;SDS011;8456;51.136;4.210;2022-07-06T03:26:59;11.33;;;8.60;;
16685;SDS011;8456;51.136;4.210;2022-07-06T03:29:24;13.00;;;8.17;;
16685;SDS011;8456;51.136;4.210;2022-07-06T03:31:50;10.40;;;9.07;;
16685;SDS011;8456;51.136;4.210;2022-07-06T03:34:16;9.97;;;8.90;;
16685;SDS011;8456;51.136;4.210;2022-07-06T03:36:42;10.17;;;8.90;;
16685;SDS011;8456;51.136;4.210;2022-07-06T03:39:08;10.13;;;8.17;;
16685;SDS011;8456;51.136;4.210;2022-07-06T03:41:36;10.27;;;8.20;;
16685;SDS011;8456;51.136;4.210;2022-07-06T03:44:02;12.43;;;8.20;;
16685;SDS011;8456;51.136;4.210;2022-07-06T03:46:29;12.87;;;9.37;;
16685;SDS011;8456;51.136;4.210;2022-07-06T03:48:55;13.13;;;8.87;;
16685;SDS011;8456;51.136;4.210;2022-07-06T03:51:20;12.33;;;9.57;;
16685;SDS011;8456;51.136;4.210;2022-07-06T03:53:46;11.13;;;9.07;;
16685;SDS011;8456;51.136;4.210;2022-07-06T03:56:13;12.13;;;9.00;;
16685;SDS011;8456;51.136;4.210;2022-07-06T03:58:57;11.40;;;8.93;;
16685;SDS011;8456;51.136;4.210;2022-07-06T04:01:30;11.60;;;10.10;;
16685;SDS011;8456;51.136;4.210;2022-07-06T04:03:57;12.20;;;9.73;;
16685;SDS011;8456;51.136;4.210;2022-07-06T04:06:24;14.07;;;10.23;;
16685;SDS011;8456;51.136;4.210;2022-07-06T04:08:51;12.43;;;9.77;;
16685;SDS011;8456;51.136;4.210;2022-07-06T04:11:17;11.00;;;9.63;;
16685;SDS011;8456;51.136;4.210;2022-07-06T04:13:43;14.77;;;10.27;;
16685;SDS011;8456;51.136;4.210;2022-07-06T04:16:09;14.67;;;12.20;;
16685;SDS011;8456;51.136;4.210;2022-07-06T04:18:35;14.87;;;11.40;;
16685;SDS011;8456;51.136;4.210;2022-07-06T04:21:02;14.70;;;11.17;;
16685;SDS011;8456;51.136;4.210;2022-07-06T04:23:30;15.40;;;12.67;;
16685;SDS011;8456;51.136;4.210;2022-07-06T04:25:56;14.47;;;12.37;;
16685;SDS011;8456;51.136;4.210;2022-07-06T04:28:24;13.13;;;11.90;;
16685;SDS011;8456;51.136;4.210;2022-07-06T04:30:50;17.17;;;13.87;;
16685;SDS011;8456;51.136;4.210;2022-07-06T04:33:19;17.23;;;13.03;;
16685;SDS011;8456;51.136;4.210;2022-07-06T04:35:47;16.13;;;13.70;;
16685;SDS011;8456;51.136;4.210;2022-07-06T04:38:12;15.13;;;12.90;;
16685;SDS011;8456;51.136;4.210;2022-07-06T04:40:39;15.07;;;12.43;;
16685;SDS011;8456;51.136;4.210;2022-07-06T04:43:10;15.67;;;10.37;;
16685;SDS011;8456;51.136;4.210;2022-07-06T04:45:36;15.27;;;10.77;;
16685;SDS011;8456;51.136;4.210;2022-07-06T04:48:03;15.90;;;10.83;;
16685;SDS011;8456;51.136;4.210;2022-07-06T04:50:29;15.13;;;10.30;;
16685;SDS011;8456;51.136;4.210;2022-07-06T04:53:00;13.40;;;11.03;;
16685;SDS011;8456;51.136;4.210;2022-07-06T04:55:26;16.67;;;12.33;;
16685;SDS011;8456;51.136;4.210;2022-07-06T04:57:52;15.37;;;11.57;;
16685;SDS011;8456;51.136;4.210;2022-07-06T05:00:18;16.67;;;12.73;;
16685;SDS011;8456;51.136;4.210;2022-07-06T05:02:46;14.83;;;12.17;;
16685;SDS011;8456;51.136;4.210;2022-07-06T05:05:12;16.33;;;13.03;;
16685;SDS011;8456;51.136;4.210;2022-07-06T05:07:38;15.77;;;13.80;;
16685;SDS011;8456;51.136;4.210;2022-07-06T05:10:09;16.97;;;14.03;;
16685;SDS011;8456;51.136;4.210;2022-07-06T05:12:37;17.93;;;14.67;;
16685;SDS011;8456;51.136;4.210;2022-07-06T05:15:04;15.30;;;13.47;;
16685;SDS011;8456;51.136;4.210;2022-07-06T05:17:30;17.27;;;14.27;;
16685;SDS011;8456;51.136;4.210;2022-07-06T05:19:59;17.20;;;12.97;;
16685;SDS011;8456;51.136;4.210;2022-07-06T05:22:25;16.33;;;13.50;;
16685;SDS011;8456;51.136;4.210;2022-07-06T05:24:52;18.17;;;13.37;;
16685;SDS011;8456;51.136;4.210;2022-07-06T05:27:18;17.83;;;14.00;;
16685;SDS011;8456;51.136;4.210;2022-07-06T05:29:45;18.20;;;13.37;;
16685;SDS011;8456;51.136;4.210;2022-07-06T05:32:12;18.60;;;12.73;;
16685;SDS011;8456;51.136;4.210;2022-07-06T05:34:37;18.00;;;12.80;;
16685;SDS011;8456;51.136;4.210;2022-07-06T05:37:04;17.20;;;12.50;;
16685;SDS011;8456;51.136;4.210;2022-07-06T05:39:30;14.97;;;11.63;;
16685;SDS011;8456;51.136;4.210;2022-07-06T05:41:56;17.10;;;11.67;;
16685;SDS011;8456;51.136;4.210;2022-07-06T05:44:21;13.67;;;11.03;;
16685;SDS011;8456;51.136;4.210;2022-07-06T05:46:48;13.27;;;10.53;;
16685;SDS011;8456;51.136;4.210;2022-07-06T05:49:13;17.70;;;12.00;;
16685;SDS011;8456;51.136;4.210;2022-07-06T05:51:58;13.97;;;11.17;;
16685;SDS011;8456;51.136;4.210;2022-07-06T05:54:24;15.03;;;10.57;;
16685;SDS011;8456;51.136;4.210;2022-07-06T05:56:49;13.70;;;10.40;;
16685;SDS011;8456;51.136;4.210;2022-07-06T05:59:15;14.53;;;10.63;;
16685;SDS011;8456;51.136;4.210;2022-07-06T06:01:42;13.90;;;9.07;;
16685;SDS011;8456;51.136;4.210;2022-07-06T06:04:12;12.30;;;9.17;;
16685;SDS011;8456;51.136;4.210;2022-07-06T06:06:38;10.77;;;8.90;;
16685;SDS011;8456;51.136;4.210;2022-07-06T06:09:04;12.37;;;8.70;;
16685;SDS011;8456;51.136;4.210;2022-07-06T06:11:30;12.80;;;8.43;;
16685;SDS011;8456;51.136;4.210;2022-07-06T06:13:55;11.30;;;7.80;;
16685;SDS011;8456;51.136;4.210;2022-07-06T06:16:21;11.97;;;7.10;;
16685;SDS011;8456;51.136;4.210;2022-07-06T06:18:47;12.77;;;6.07;;
16685;SDS011;8456;51.136;4.210;2022-07-06T06:21:13;9.97;;;6.13;;
16685;SDS011;8456;51.136;4.210;2022-07-06T06:23:39;14.37;;;6.67;;
16685;SDS011;8456;51.136;4.210;2022-07-06T06:26:04;11.10;;;6.90;;
16685;SDS011;8456;51.136;4.210;2022-07-06T06:28:30;11.10;;;6.60;;
16685;SDS011;8456;51.136;4.210;2022-07-06T06:30:56;10.03;;;6.93;;
16685;SDS011;8456;51.136;4.210;2022-07-06T06:33:22;14.23;;;7.43;;
16685;SDS011;8456;51.136;4.210;2022-07-06T06:35:48;9.97;;;6.33;;
16685;SDS011;8456;51.136;4.210;2022-07-06T06:38:16;12.20;;;7.10;;
16685;SDS011;8456;51.136;4.210;2022-07-06T06:40:43;11.97;;;6.73;;
16685;SDS011;8456;51.136;4.210;2022-07-06T06:43:08;8.83;;;6.07;;
16685;SDS011;8456;51.136;4.210;2022-07-06T06:45:42;9.77;;;6.33;;
16685;SDS011;8456;51.136;4.210;2022-07-06T06:48:09;12.97;;;6.90;;
16685;SDS011;8456;51.136;4.210;2022-07-06T06:50:35;10.77;;;6.40;;
16685;SDS011;8456;51.136;4.210;2022-07-06T06:53:02;8.43;;;6.07;;
16685;SDS011;8456;51.136;4.210;2022-07-06T06:55:28;10.17;;;6.80;;
16685;SDS011;8456;51.136;4.210;2022-07-06T06:57:53;9.40;;;4.47;;
16685;SDS011;8456;51.136;4.210;2022-07-06T07:00:19;11.43;;;4.47;;
16685;SDS011;8456;51.136;4.210;2022-07-06T07:02:45;9.53;;;4.37;;
16685;SDS011;8456;51.136;4.210;2022-07-06T07:05:12;9.40;;;4.33;;
16685;SDS011;8456;51.136;4.210;2022-07-06T07:07:38;9.07;;;4.43;;
16685;SDS011;8456;51.136;4.210;2022-07-06T07:10:04;6.33;;;3.43;;
16685;SDS011;8456;51.136;4.210;2022-07-06T07:12:30;6.87;;;4.13;;
16685;SDS011;8456;51.136;4.210;2022-07-06T07:14:56;6.57;;;3.70;;
16685;SDS011;8456;51.136;4.210;2022-07-06T07:17:22;7.80;;;3.47;;
16685;SDS011;8456;51.136;4.210;2022-07-06T07:19:48;6.03;;;2.90;;
16685;SDS011;8456;51.136;4.210;2022-07-06T07:22:13;15.17;;;3.60;;
16685;SDS011;8456;51.136;4.210;2022-07-06T07:24:39;7.13;;;3.67;;
16685;SDS011;8456;51.136;4.210;2022-07-06T07:27:05;6.88;;;2.88;;
16685;SDS011;8456;51.136;4.210;2022-07-06T07:29:31;8.87;;;3.33;;
16685;SDS011;8456;51.136;4.210;2022-07-06T07:31:57;7.40;;;3.60;;
16685;SDS011;8456;51.136;4.210;2022-07-06T07:34:22;10.15;;;3.08;;
16685;SDS011;8456;51.136;4.210;2022-07-06T07:36:49;8.43;;;3.60;;
16685;SDS011;8456;51.136;4.210;2022-07-06T07:39:15;7.93;;;3.47;;
16685;SDS011;8456;51.136;4.210;2022-07-06T07:41:40;7.13;;;2.72;;
16685;SDS011;8456;51.136;4.210;2022-07-06T07:44:06;4.22;;;1.63;;
16685;SDS011;8456;51.136;4.210;2022-07-06T07:46:32;8.27;;;1.38;;
16685;SDS011;8456;51.136;4.210;2022-07-06T07:48:58;2.97;;;1.20;;
16685;SDS011;8456;51.136;4.210;2022-07-06T07:51:24;9.52;;;1.20;;
16685;SDS011;8456;51.136;4.210;2022-07-06T07:53:49;3.17;;;1.55;;
16685;SDS011;8456;51.136;4.210;2022-07-06T07:56:15;2.85;;;1.50;;
16685;SDS011;8456;51.136;4.210;2022-07-06T07:58:41;4.10;;;1.70;;
16685;SDS011;8456;51.136;4.210;2022-07-06T08:01:07;8.38;;;1.70;;
16685;SDS011;8456;51.136;4.210;2022-07-06T08:03:33;6.38;;;2.33;;
16685;SDS011;8456;51.136;4.210;2022-07-06T08:05:58;3.47;;;1.40;;
16685;SDS011;8456;51.136;4.210;2022-07-06T08:08:24;4.97;;;1.40;;
16685;SDS011;8456;51.136;4.210;2022-07-06T08:10:50;5.40;;;1.55;;
16685;SDS011;8456;51.136;4.210;2022-07-06T08:13:16;5.18;;;1.63;;
16685;SDS011;8456;51.136;4.210;2022-07-06T08:15:42;5.20;;;1.30;;
16685;SDS011;8456;51.136;4.210;2022-07-06T08:18:08;4.82;;;1.73;;
16685;SDS011;8456;51.136;4.210;2022-07-06T08:20:35;5.15;;;1.42;;
16685;SDS011;8456;51.136;4.210;2022-07-06T08:23:02;4.22;;;2.00;;
16685;SDS011;8456;51.136;4.210;2022-07-06T08:25:29;5.20;;;1.40;;
16685;SDS011;8456;51.136;4.210;2022-07-06T08:27:55;4.10;;;1.65;;
16685;SDS011;8456;51.136;4.210;2022-07-06T08:30:21;5.63;;;2.07;;
16685;SDS011;8456;51.136;4.210;2022-07-06T08:32:47;6.90;;;1.93;;
16685;SDS011;8456;51.136;4.210;2022-07-06T08:35:13;5.07;;;2.10;;
16685;SDS011;8456;51.136;4.210;2022-07-06T08:37:38;7.17;;;2.27;;
16685;SDS011;8456;51.136;4.210;2022-07-06T08:40:04;6.13;;;2.70;;
16685;SDS011;8456;51.136;4.210;2022-07-06T08:42:32;4.67;;;1.90;;
16685;SDS011;8456;51.136;4.210;2022-07-06T08:44:59;8.43;;;2.07;;
16685;SDS011;8456;51.136;4.210;2022-07-06T08:47:28;4.30;;;1.80;;
16685;SDS011;8456;51.136;4.210;2022-07-06T08:49:56;5.87;;;2.07;;
16685;SDS011;8456;51.136;4.210;2022-07-06T08:52:25;7.70;;;2.23;;
16685;SDS011;8456;51.136;4.210;2022-07-06T08:54:51;4.73;;;2.00;;
16685;SDS011;8456;51.136;4.210;2022-07-06T08:57:17;8.70;;;2.30;;
16685;SDS011;8456;51.136;4.210;2022-07-06T08:59:43;4.97;;;2.10;;
16685;SDS011;8456;51.136;4.210;2022-07-06T09:02:10;7.00;;;1.70;;
16685;SDS011;8456;51.136;4.210;2022-07-06T09:04:36;6.63;;;1.90;;
16685;SDS011;8456;51.136;4.210;2022-07-06T09:07:03;5.25;;;1.80;;
16685;SDS011;8456;51.136;4.210;2022-07-06T09:09:29;5.03;;;1.83;;
16685;SDS011;8456;51.136;4.210;2022-07-06T09:11:58;5.90;;;1.87;;
16685;SDS011;8456;51.136;4.210;2022-07-06T09:14:24;5.30;;;2.03;;
16685;SDS011;8456;51.136;4.210;2022-07-06T09:17:03;6.33;;;2.30;;
16685;SDS011;8456;51.136;4.210;2022-07-06T09:19:32;6.10;;;2.53;;
16685;SDS011;8456;51.136;4.210;2022-07-06T09:21:59;5.43;;;1.90;;
16685;SDS011;8456;51.136;4.210;2022-07-06T09:24:25;5.03;;;1.93;;
16685;SDS011;8456;51.136;4.210;2022-07-06T09:26:54;7.80;;;1.97;;
16685;SDS011;8456;51.136;4.210;2022-07-06T09:29:26;5.10;;;2.70;;
16685;SDS011;8456;51.136;4.210;2022-07-06T09:31:57;7.97;;;2.30;;
16685;SDS011;8456;51.136;4.210;2022-07-06T09:34:41;8.40;;;2.33;;
16685;SDS011;8456;51.136;4.210;2022-07-06T09:37:08;5.07;;;3.00;;
16685;SDS011;8456;51.136;4.210;2022-07-06T09:39:34;7.23;;;2.53;;
16685;SDS011;8456;51.136;4.210;2022-07-06T09:42:01;5.07;;;2.33;;
16685;SDS011;8456;51.136;4.210;2022-07-06T09:44:29;8.30;;;2.77;;
16685;SDS011;8456;51.136;4.210;2022-07-06T09:46:58;5.27;;;2.30;;
16685;SDS011;8456;51.136;4.210;2022-07-06T09:49:25;10.77;;;3.30;;
16685;SDS011;8456;51.136;4.210;2022-07-06T09:51:52;7.10;;;2.93;;
16685;SDS011;8456;51.136;4.210;2022-07-06T09:54:23;6.47;;;3.20;;
16685;SDS011;8456;51.136;4.210;2022-07-06T09:56:49;7.87;;;2.70;;
16685;SDS011;8456;51.136;4.210;2022-07-06T09:59:17;6.23;;;2.60;;
16685;SDS011;8456;51.136;4.210;2022-07-06T10:01:47;8.23;;;2.50;;
16685;SDS011;8456;51.136;4.210;2022-07-06T10:04:16;6.37;;;2.13;;
16685;SDS011;8456;51.136;4.210;2022-07-06T10:06:45;6.87;;;2.37;;
16685;SDS011;8456;51.136;4.210;2022-07-06T10:09:12;8.20;;;2.13;;
16685;SDS011;8456;51.136;4.210;2022-07-06T10:11:56;5.73;;;2.53;;
16685;SDS011;8456;51.136;4.210;2022-07-06T10:14:26;6.00;;;2.20;;
16685;SDS011;8456;51.136;4.210;2022-07-06T10:16:55;8.03;;;2.80;;
16685;SDS011;8456;51.136;4.210;2022-07-06T10:19:25;6.60;;;2.73;;
16685;SDS011;8456;51.136;4.210;2022-07-06T10:21:52;8.27;;;2.77;;
16685;SDS011;8456;51.136;4.210;2022-07-06T10:24:21;8.90;;;3.00;;
16685;SDS011;8456;51.136;4.210;2022-07-06T10:26:47;9.60;;;2.73;;
16685;SDS011;8456;51.136;4.210;2022-07-06T10:29:14;5.87;;;2.60;;
16685;SDS011;8456;51.136;4.210;2022-07-06T10:31:40;8.63;;;2.60;;
16685;SDS011;8456;51.136;4.210;2022-07-06T10:34:09;5.50;;;2.80;;
16685;SDS011;8456;51.136;4.210;2022-07-06T10:36:38;6.50;;;2.43;;
16685;SDS011;8456;51.136;4.210;2022-07-06T10:39:08;6.30;;;2.47;;
16685;SDS011;8456;51.136;4.210;2022-07-06T10:41:53;4.20;;;2.07;;
16685;SDS011;8456;51.136;4.210;2022-07-06T10:44:27;6.63;;;2.80;;
16685;SDS011;8456;51.136;4.210;2022-07-06T10:46:54;8.43;;;2.57;;
16685;SDS011;8456;51.136;4.210;2022-07-06T10:49:22;7.93;;;2.90;;
16685;SDS011;8456;51.136;4.210;2022-07-06T10:51:49;7.43;;;2.50;;
16685;SDS011;8456;51.136;4.210;2022-07-06T10:54:15;7.07;;;2.40;;
16685;SDS011;8456;51.136;4.210;2022-07-06T10:56:44;10.00;;;2.53;;
16685;SDS011;8456;51.136;4.210;2022-07-06T10:59:15;6.17;;;2.40;;
16685;SDS011;8456;51.136;4.210;2022-07-06T11:04:43;4.67;;;2.60;;
16685;SDS011;8456;51.136;4.210;2022-07-06T11:07:11;7.43;;;3.10;;
16685;SDS011;8456;51.136;4.210;2022-07-06T11:09:41;5.27;;;3.20;;
16685;SDS011;8456;51.136;4.210;2022-07-06T11:12:19;8.17;;;3.10;;
16685;SDS011;8456;51.136;4.210;2022-07-06T11:14:46;8.03;;;4.47;;
16685;SDS011;8456;51.136;4.210;2022-07-06T11:17:13;7.73;;;3.83;;
16685;SDS011;8456;51.136;4.210;2022-07-06T11:20:08;6.07;;;3.50;;
16685;SDS011;8456;51.136;4.210;2022-07-06T11:22:36;8.63;;;3.90;;
16685;SDS011;8456;51.136;4.210;2022-07-06T11:25:03;8.73;;;3.33;;
16685;SDS011;8456;51.136;4.210;2022-07-06T11:27:30;8.10;;;3.70;;
16685;SDS011;8456;51.136;4.210;2022-07-06T11:29:57;7.97;;;3.27;;
16685;SDS011;8456;51.136;4.210;2022-07-06T11:32:23;6.10;;;3.43;;
16685;SDS011;8456;51.136;4.210;2022-07-06T11:34:50;8.47;;;3.80;;
16685;SDS011;8456;51.136;4.210;2022-07-06T11:37:16;7.83;;;3.40;;
16685;SDS011;8456;51.136;4.210;2022-07-06T11:39:44;7.60;;;3.80;;
16685;SDS011;8456;51.136;4.210;2022-07-06T11:42:11;8.57;;;4.37;;
16685;SDS011;8456;51.136;4.210;2022-07-06T11:44:39;8.43;;;4.23;;
16685;SDS011;8456;51.136;4.210;2022-07-06T11:47:06;9.43;;;4.00;;
16685;SDS011;8456;51.136;4.210;2022-07-06T11:49:33;7.97;;;4.37;;
16685;SDS011;8456;51.136;4.210;2022-07-06T11:52:11;8.27;;;4.30;;
16685;SDS011;8456;51.136;4.210;2022-07-06T11:54:38;9.37;;;5.87;;
16685;SDS011;8456;51.136;4.210;2022-07-06T11:57:07;13.53;;;6.20;;
16685;SDS011;8456;51.136;4.210;2022-07-06T11:59:35;8.93;;;5.77;;
16685;SDS011;8456;51.136;4.210;2022-07-06T12:04:31;11.00;;;5.60;;
16685;SDS011;8456;51.136;4.210;2022-07-06T12:07:01;13.30;;;6.50;;
16685;SDS011;8456;51.136;4.210;2022-07-06T12:09:32;11.27;;;5.80;;
16685;SDS011;8456;51.136;4.210;2022-07-06T12:11:58;8.90;;;5.90;;
16685;SDS011;8456;51.136;4.210;2022-07-06T12:14:27;9.37;;;5.73;;
16685;SDS011;8456;51.136;4.210;2022-07-06T12:16:54;12.27;;;5.80;;
16685;SDS011;8456;51.136;4.210;2022-07-06T12:19:23;9.63;;;4.93;;
16685;SDS011;8456;51.136;4.210;2022-07-06T12:21:49;9.57;;;4.77;;
16685;SDS011;8456;51.136;4.210;2022-07-06T12:24:17;9.47;;;4.20;;
16685;SDS011;8456;51.136;4.210;2022-07-06T12:26:45;9.07;;;4.70;;
16685;SDS011;8456;51.136;4.210;2022-07-06T12:29:11;9.53;;;4.73;;
16685;SDS011;8456;51.136;4.210;2022-07-06T12:34:14;7.57;;;4.20;;
16685;SDS011;8456;51.136;4.210;2022-07-06T12:36:51;9.83;;;4.07;;
16685;SDS011;8456;51.136;4.210;2022-07-06T12:39:19;6.30;;;3.60;;
16685;SDS011;8456;51.136;4.210;2022-07-06T12:41:50;7.83;;;3.27;;
16685;SDS011;8456;51.136;4.210;2022-07-06T12:44:24;8.27;;;3.53;;
16685;SDS011;8456;51.136;4.210;2022-07-06T12:47:09;5.53;;;3.43;;
16685;SDS011;8456;51.136;4.210;2022-07-06T12:49:36;5.43;;;4.10;;
16685;SDS011;8456;51.136;4.210;2022-07-06T12:54:35;6.60;;;3.50;;
16685;SDS011;8456;51.136;4.210;2022-07-06T13:02:23;7.03;;;3.40;;
16685;SDS011;8456;51.136;4.210;2022-07-06T13:05:00;7.43;;;3.20;;
16685;SDS011;8456;51.136;4.210;2022-07-06T13:07:29;7.10;;;3.63;;
16685;SDS011;8456;51.136;4.210;2022-07-06T13:09:57;7.17;;;2.93;;
16685;SDS011;8456;51.136;4.210;2022-07-06T13:12:23;5.07;;;2.70;;
16685;SDS011;8456;51.136;4.210;2022-07-06T13:14:50;8.13;;;2.43;;
16685;SDS011;8456;51.136;4.210;2022-07-06T13:17:16;7.67;;;2.80;;
16685;SDS011;8456;51.136;4.210;2022-07-06T13:19:43;7.27;;;2.67;;
16685;SDS011;8456;51.136;4.210;2022-07-06T13:22:09;6.93;;;2.80;;
16685;SDS011;8456;51.136;4.210;2022-07-06T13:24:35;6.47;;;2.63;;
16685;SDS011;8456;51.136;4.210;2022-07-06T13:27:02;6.10;;;2.40;;
16685;SDS011;8456;51.136;4.210;2022-07-06T13:29:28;4.80;;;2.33;;
16685;SDS011;8456;51.136;4.210;2022-07-06T13:31:54;9.00;;;2.50;;
16685;SDS011;8456;51.136;4.210;2022-07-06T13:34:20;14.87;;;2.70;;
16685;SDS011;8456;51.136;4.210;2022-07-06T13:36:46;7.20;;;3.13;;
16685;SDS011;8456;51.136;4.210;2022-07-06T13:39:12;5.53;;;2.43;;
16685;SDS011;8456;51.136;4.210;2022-07-06T13:41:38;7.97;;;2.30;;
16685;SDS011;8456;51.136;4.210;2022-07-06T13:44:03;7.93;;;2.30;;
16685;SDS011;8456;51.136;4.210;2022-07-06T13:46:30;6.53;;;2.13;;
16685;SDS011;8456;51.136;4.210;2022-07-06T13:48:56;4.93;;;2.50;;
16685;SDS011;8456;51.136;4.210;2022-07-06T13:51:24;4.63;;;2.03;;
16685;SDS011;8456;51.136;4.210;2022-07-06T13:53:51;9.00;;;2.70;;
16685;SDS011;8456;51.136;4.210;2022-07-06T13:56:17;5.93;;;2.23;;
16685;SDS011;8456;51.136;4.210;2022-07-06T13:58:44;5.50;;;2.60;;
16685;SDS011;8456;51.136;4.210;2022-07-06T14:01:10;8.83;;;2.37;;
16685;SDS011;8456;51.136;4.210;2022-07-06T14:03:36;6.27;;;2.47;;
16685;SDS011;8456;51.136;4.210;2022-07-06T14:06:03;6.73;;;3.03;;
16685;SDS011;8456;51.136;4.210;2022-07-06T14:08:32;5.47;;;2.00;;
16685;SDS011;8456;51.136;4.210;2022-07-06T14:10:58;6.57;;;2.57;;
16685;SDS011;8456;51.136;4.210;2022-07-06T14:13:24;9.73;;;2.37;;
16685;SDS011;8456;51.136;4.210;2022-07-06T14:15:50;5.67;;;2.10;;
16685;SDS011;8456;51.136;4.210;2022-07-06T14:18:16;5.00;;;2.47;;
16685;SDS011;8456;51.136;4.210;2022-07-06T14:20:45;8.27;;;2.10;;
16685;SDS011;8456;51.136;4.210;2022-07-06T14:23:12;3.13;;;1.93;;
16685;SDS011;8456;51.136;4.210;2022-07-06T14:25:39;6.10;;;2.17;;
16685;SDS011;8456;51.136;4.210;2022-07-06T14:28:05;5.03;;;2.10;;
16685;SDS011;8456;51.136;4.210;2022-07-06T14:30:31;4.87;;;2.00;;
16685;SDS011;8456;51.136;4.210;2022-07-06T14:33:04;4.00;;;2.10;;
16685;SDS011;8456;51.136;4.210;2022-07-06T14:35:37;7.43;;;2.70;;
16685;SDS011;8456;51.136;4.210;2022-07-06T14:38:05;3.37;;;2.33;;
16685;SDS011;8456;51.136;4.210;2022-07-06T14:40:32;4.47;;;2.03;;
16685;SDS011;8456;51.136;4.210;2022-07-06T14:42:58;5.67;;;2.30;;
16685;SDS011;8456;51.136;4.210;2022-07-06T14:45:24;10.20;;;2.93;;
16685;SDS011;8456;51.136;4.210;2022-07-06T14:47:50;6.43;;;2.57;;
16685;SDS011;8456;51.136;4.210;2022-07-06T14:50:16;7.00;;;2.40;;
16685;SDS011;8456;51.136;4.210;2022-07-06T14:52:43;10.63;;;2.60;;
16685;SDS011;8456;51.136;4.210;2022-07-06T14:55:08;10.47;;;2.97;;
16685;SDS011;8456;51.136;4.210;2022-07-06T14:57:35;5.93;;;2.00;;
16685;SDS011;8456;51.136;4.210;2022-07-06T15:00:00;9.77;;;3.40;;
16685;SDS011;8456;51.136;4.210;2022-07-06T15:02:27;15.93;;;3.70;;
16685;SDS011;8456;51.136;4.210;2022-07-06T15:04:53;8.10;;;4.33;;
16685;SDS011;8456;51.136;4.210;2022-07-06T15:07:18;10.47;;;4.20;;
16685;SDS011;8456;51.136;4.210;2022-07-06T15:09:44;10.47;;;4.03;;
16685;SDS011;8456;51.136;4.210;2022-07-06T15:12:10;8.67;;;4.00;;